sensor_id;sensor_type;location;lat;lon;timestamp;pressure;altitude;pressure_sealevel;temperature;humidity
54439;BME280;40347;53.848;27.498;2023-02-13T00:01:17;1023.3;;;1.9;61.3
54439;BME280;40347;53.848;27.498;2023-02-13T00:06:07;1023.2;;;2;61.2
54439;BME280;40347;53.848;27.498;2023-02-13T00:11:29;1023.3;;;2.1;61.3
54439;BME280;40347;53.848;27.498;2023-02-13T00:16:08;1023.1;;;2.1;61.5
54439;BME280;40347;53.848;27.498;2023-02-13T00:21:09;1023.2;;;2.2;61.6
54439;BME280;40347;53.848;27.498;2023-02-13T00:26:27;1023.1;;;2.2;61.8
54439;BME280;40347;53.848;27.498;2023-02-13T00:31:19;1023.1;;;2.3;61.8
54439;BME280;40347;53.848;27.498;2023-02-13T00:36:15;1023.1;;;2.3;61.8
54439;BME280;40347;53.848;27.498;2023-02-13T00:41:17;1023.1;;;2.3;62
54439;BME280;40347;53.848;27.498;2023-02-13T00:46:17;1023;;;2.3;62.1
54439;BME280;40347;53.848;27.498;2023-02-13T00:51:17;1023;;;2.3;62.4
54439;BME280;40347;53.848;27.498;2023-02-13T00:56:07;1022.8;;;2.4;62.6
54439;BME280;40347;53.848;27.498;2023-02-13T01:01:07;1022.7;;;2.4;62.5
54439;BME280;40347;53.848;27.498;2023-02-13T01:06:07;1022.6;;;2.4;62.8
54439;BME280;40347;53.848;27.498;2023-02-13T01:11:29;1022.5;;;2.4;63.1
54439;BME280;40347;53.848;27.498;2023-02-13T01:16:19;1022.3;;;2.4;63.2
54439;BME280;40347;53.848;27.498;2023-02-13T01:21:08;1022.3;;;2.5;63.4
54439;BME280;40347;53.848;27.498;2023-02-13T01:26:29;1022.3;;;2.4;63.5
54439;BME280;40347;53.848;27.498;2023-02-13T01:31:29;1022.3;;;2.3;63.8
54439;BME280;40347;53.848;27.498;2023-02-13T01:36:08;1022.3;;;2.3;64.2
54439;BME280;40347;53.848;27.498;2023-02-13T01:41:17;1022.3;;;2.4;64.4
54439;BME280;40347;53.848;27.498;2023-02-13T01:46:20;1022.2;;;2.5;64.3
54439;BME280;40347;53.848;27.498;2023-02-13T01:51:18;1022.2;;;2.5;64.4
54439;BME280;40347;53.848;27.498;2023-02-13T01:56:20;1022.2;;;2.5;64.6
54439;BME280;40347;53.848;27.498;2023-02-13T02:01:19;1022;;;2.5;64.5
54439;BME280;40347;53.848;27.498;2023-02-13T02:06:17;1021.9;;;2.5;65
54439;BME280;40347;53.848;27.498;2023-02-13T02:11:19;1021.8;;;2.6;65.1
54439;BME280;40347;53.848;27.498;2023-02-13T02:16:17;1021.8;;;2.6;65.3
54439;BME280;40347;53.848;27.498;2023-02-13T02:21:38;1021.8;;;2.5;65.8
54439;BME280;40347;53.848;27.498;2023-02-13T02:26:13;1021.8;;;2.2;67.1
54439;BME280;40347;53.848;27.498;2023-02-13T02:31:15;1021.8;;;2.1;67.4
54439;BME280;40347;53.848;27.498;2023-02-13T02:36:33;1021.7;;;2.2;67.7
54439;BME280;40347;53.848;27.498;2023-02-13T02:41:33;1021.6;;;2.2;68
54439;BME280;40347;53.848;27.498;2023-02-13T02:46:21;1021.6;;;2.2;68
54439;BME280;40347;53.848;27.498;2023-02-13T02:51:18;1021.6;;;2.1;68
54439;BME280;40347;53.848;27.498;2023-02-13T02:56:09;1021.6;;;2.1;68.4
54439;BME280;40347;53.848;27.498;2023-02-13T03:01:18;1021.5;;;2;69.3
54439;BME280;40347;53.848;27.498;2023-02-13T03:06:08;1021.5;;;2.1;69.4
54439;BME280;40347;53.848;27.498;2023-02-13T03:11:17;1021.5;;;2.2;69.5
54439;BME280;40347;53.848;27.498;2023-02-13T03:16:29;1021.6;;;2.2;69.8
54439;BME280;40347;53.848;27.498;2023-02-13T03:21:08;1021.5;;;2.2;69.7
54439;BME280;40347;53.848;27.498;2023-02-13T03:26:14;1021.4;;;2.4;69.7
54439;BME280;40347;53.848;27.498;2023-02-13T03:31:31;1021.3;;;2.4;69.7
54439;BME280;40347;53.848;27.498;2023-02-13T03:36:12;1021.2;;;2.4;69.8
54439;BME280;40347;53.848;27.498;2023-02-13T03:41:10;1021.1;;;2.2;70.4
54439;BME280;40347;53.848;27.498;2023-02-13T03:46:17;1021.2;;;2.1;71.3
54439;BME280;40347;53.848;27.498;2023-02-13T03:51:20;1021.2;;;2;71.5
54439;BME280;40347;53.848;27.498;2023-02-13T03:56:07;1021.1;;;2.2;71.3
54439;BME280;40347;53.848;27.498;2023-02-13T04:01:20;1021;;;2.4;70.9
54439;BME280;40347;53.848;27.498;2023-02-13T04:06:18;1021;;;2.5;70.3
54439;BME280;40347;53.848;27.498;2023-02-13T04:11:18;1021.1;;;2.6;70.4
54439;BME280;40347;53.848;27.498;2023-02-13T04:16:30;1021.1;;;2.8;70.2
54439;BME280;40347;53.848;27.498;2023-02-13T04:21:07;1021.2;;;2.9;70
54439;BME280;40347;53.848;27.498;2023-02-13T04:26:18;1021.3;;;2.9;70.5
54439;BME280;40347;53.848;27.498;2023-02-13T04:31:15;1021.3;;;2.7;70.6
54439;BME280;40347;53.848;27.498;2023-02-13T04:36:07;1021.3;;;2.8;70.6
54439;BME280;40347;53.848;27.498;2023-02-13T04:41:07;1021.3;;;2.8;70.9
54439;BME280;40347;53.848;27.498;2023-02-13T04:46:29;1021.4;;;2.9;70.9
54439;BME280;40347;53.848;27.498;2023-02-13T04:51:27;1021.4;;;3;71
54439;BME280;40347;53.848;27.498;2023-02-13T04:56:07;1021.3;;;3.1;71
54439;BME280;40347;53.848;27.498;2023-02-13T05:01:10;1021.3;;;3;71.3
54439;BME280;40347;53.848;27.498;2023-02-13T05:06:07;1021.3;;;2.8;71.5
54439;BME280;40347;53.848;27.498;2023-02-13T05:11:07;1021.3;;;2.8;72
54439;BME280;40347;53.848;27.498;2023-02-13T05:16:17;1021.2;;;2.9;72.5
54439;BME280;40347;53.848;27.498;2023-02-13T05:21:41;1021.3;;;3.1;71.9
54439;BME280;40347;53.848;27.498;2023-02-13T05:26:27;1021.2;;;3.2;71.7
54439;BME280;40347;53.848;27.498;2023-02-13T05:31:19;1021.2;;;3.2;71.6
54439;BME280;40347;53.848;27.498;2023-02-13T05:36:29;1021.2;;;3.2;71.6
54439;BME280;40347;53.848;27.498;2023-02-13T05:41:29;1021.2;;;3.2;71.6
54439;BME280;40347;53.848;27.498;2023-02-13T05:46:27;1021.3;;;3.3;72.4
54439;BME280;40347;53.848;27.498;2023-02-13T05:51:17;1021.4;;;3.3;72.2
54439;BME280;40347;53.848;27.498;2023-02-13T05:56:15;1021.5;;;3.5;71.9
54439;BME280;40347;53.848;27.498;2023-02-13T06:01:07;1021.5;;;3.6;71.9
54439;BME280;40347;53.848;27.498;2023-02-13T06:06:17;1021.5;;;3.6;71.5
54439;BME280;40347;53.848;27.498;2023-02-13T06:11:07;1021.4;;;3.8;71.5
54439;BME280;40347;53.848;27.498;2023-02-13T06:16:07;1021.4;;;3.8;71.4
54439;BME280;40347;53.848;27.498;2023-02-13T06:21:07;1021.4;;;3.8;71.3
54439;BME280;40347;53.848;27.498;2023-02-13T06:26:31;1021.4;;;3.8;71.3
54439;BME280;40347;53.848;27.498;2023-02-13T06:31:15;1021.3;;;4;71.3
54439;BME280;40347;53.848;27.498;2023-02-13T06:36:17;1021.3;;;4.1;71.1
54439;BME280;40347;53.848;27.498;2023-02-13T06:41:07;1021.2;;;4.3;70.9
54439;BME280;40347;53.848;27.498;2023-02-13T06:46:17;1021.2;;;4.4;70.5
54439;BME280;40347;53.848;27.498;2023-02-13T06:51:07;1021.1;;;4.3;70.3
54439;BME280;40347;53.848;27.498;2023-02-13T06:56:19;1021.1;;;3.9;70.9
54439;BME280;40347;53.848;27.498;2023-02-13T07:01:07;1021.1;;;3.9;71.3
54439;BME280;40347;53.848;27.498;2023-02-13T07:06:16;1021;;;3.9;71.4
54439;BME280;40347;53.848;27.498;2023-02-13T07:11:07;1021;;;4.1;71.1
54439;BME280;40347;53.848;27.498;2023-02-13T07:16:07;1021;;;4.2;70.4
54439;BME280;40347;53.848;27.498;2023-02-13T07:21:07;1021;;;4.1;70.6
54439;BME280;40347;53.848;27.498;2023-02-13T07:26:17;1020.9;;;4.2;70.6
54439;BME280;40347;53.848;27.498;2023-02-13T07:31:07;1020.9;;;4.4;70.2
54439;BME280;40347;53.848;27.498;2023-02-13T07:36:17;1020.8;;;4.5;69.8
54439;BME280;40347;53.848;27.498;2023-02-13T07:41:17;1020.8;;;4.5;69.5
54439;BME280;40347;53.848;27.498;2023-02-13T07:46:17;1020.7;;;4.4;69.5
54439;BME280;40347;53.848;27.498;2023-02-13T07:51:17;1020.7;;;4.5;69.7
54439;BME280;40347;53.848;27.498;2023-02-13T07:56:19;1020.8;;;4.8;69.6
54439;BME280;40347;53.848;27.498;2023-02-13T08:01:19;1020.7;;;5;69
54439;BME280;40347;53.848;27.498;2023-02-13T08:06:07;1020.6;;;5;68.4
54439;BME280;40347;53.848;27.498;2023-02-13T08:11:30;1020.6;;;5;68.4
54439;BME280;40347;53.848;27.498;2023-02-13T08:16:17;1020.7;;;5;68.5
54439;BME280;40347;53.848;27.498;2023-02-13T08:21:19;1020.8;;;5;68.6
54439;BME280;40347;53.848;27.498;2023-02-13T08:26:07;1020.8;;;5.1;68.4
54439;BME280;40347;53.848;27.498;2023-02-13T08:31:15;1020.8;;;5.2;68.2
54439;BME280;40347;53.848;27.498;2023-02-13T08:36:17;1020.7;;;5.4;68.1
54439;BME280;40347;53.848;27.498;2023-02-13T08:41:27;1020.6;;;5.5;67.8
54439;BME280;40347;53.848;27.498;2023-02-13T08:46:17;1020.6;;;5.6;67.2
54439;BME280;40347;53.848;27.498;2023-02-13T08:51:19;1020.5;;;5.6;67.3
54439;BME280;40347;53.848;27.498;2023-02-13T08:56:08;1020.4;;;5.5;67.5
54439;BME280;40347;53.848;27.498;2023-02-13T09:01:07;1020.4;;;5.6;67.3
54439;BME280;40347;53.848;27.498;2023-02-13T09:06:43;1020.3;;;5.7;67.2
54439;BME280;40347;53.848;27.498;2023-02-13T09:11:19;1020.3;;;5.6;67.1
54439;BME280;40347;53.848;27.498;2023-02-13T09:16:17;1020.3;;;5.8;67.2
54439;BME280;40347;53.848;27.498;2023-02-13T09:21:18;1020.3;;;5.8;67
54439;BME280;40347;53.848;27.498;2023-02-13T09:26:08;1020.3;;;5.6;66.8
54439;BME280;40347;53.848;27.498;2023-02-13T09:31:08;1020.3;;;5.6;67.3
54439;BME280;40347;53.848;27.498;2023-02-13T09:36:20;1020.2;;;5.8;67.2
54439;BME280;40347;53.848;27.498;2023-02-13T09:41:38;1020.2;;;5.9;67
54439;BME280;40347;53.848;27.498;2023-02-13T09:46:20;1020.1;;;6.1;66.5
54439;BME280;40347;53.848;27.498;2023-02-13T09:51:08;1020;;;6;66.2
54439;BME280;40347;53.848;27.498;2023-02-13T09:56:09;1020;;;5.8;66.3
54439;BME280;40347;53.848;27.498;2023-02-13T10:01:18;1020.1;;;5.6;67
54439;BME280;40347;53.848;27.498;2023-02-13T10:06:28;1020;;;5.7;67
54439;BME280;40347;53.848;27.498;2023-02-13T10:11:35;1020;;;5.7;67.1
54439;BME280;40347;53.848;27.498;2023-02-13T10:16:20;1020.1;;;5.6;67.3
54439;BME280;40347;53.848;27.498;2023-02-13T10:21:29;1020.1;;;5.8;67.4
54439;BME280;40347;53.848;27.498;2023-02-13T10:26:09;1020.1;;;6.1;66.6
54439;BME280;40347;53.848;27.498;2023-02-13T10:31:17;1020.2;;;6.1;66.4
54439;BME280;40347;53.848;27.498;2023-02-13T10:36:25;1020.3;;;6.4;66.2
54439;BME280;40347;53.848;27.498;2023-02-13T10:41:20;1020.3;;;6.1;66.2
54439;BME280;40347;53.848;27.498;2023-02-13T10:46:10;1020.1;;;6.3;66.6
54439;BME280;40347;53.848;27.498;2023-02-13T10:51:18;1020.1;;;6.6;66
54439;BME280;40347;53.848;27.498;2023-02-13T10:56:21;1020;;;7;65.3
54439;BME280;40347;53.848;27.498;2023-02-13T11:01:20;1020;;;7.1;64.6
54439;BME280;40347;53.848;27.498;2023-02-13T11:06:29;1019.8;;;7;64.1
54439;BME280;40347;53.848;27.498;2023-02-13T11:11:34;1019.8;;;6.7;64.9
54439;BME280;40347;53.848;27.498;2023-02-13T11:16:07;1019.8;;;6.7;65.2
54439;BME280;40347;53.848;27.498;2023-02-13T11:21:08;1019.7;;;6.7;65.3
54439;BME280;40347;53.848;27.498;2023-02-13T11:26:08;1019.8;;;6.7;65.3
54439;BME280;40347;53.848;27.498;2023-02-13T11:31:25;1019.7;;;6.7;65.1
54439;BME280;40347;53.848;27.498;2023-02-13T11:36:08;1019.5;;;6.7;65.1
54439;BME280;40347;53.848;27.498;2023-02-13T11:41:08;1019.4;;;6.5;65.5
54439;BME280;40347;53.848;27.498;2023-02-13T11:46:16;1019.4;;;6.1;66.4
54439;BME280;40347;53.848;27.498;2023-02-13T11:51:07;1019.3;;;6.2;66.9
54439;BME280;40347;53.848;27.498;2023-02-13T11:56:15;1019.3;;;6.4;66.4
54439;BME280;40347;53.848;27.498;2023-02-13T12:01:25;1019.2;;;6.2;66.3
54439;BME280;40347;53.848;27.498;2023-02-13T12:06:10;1019.2;;;6;67
54439;BME280;40347;53.848;27.498;2023-02-13T12:11:13;1019.1;;;5.9;67.3
54439;BME280;40347;53.848;27.498;2023-02-13T12:16:09;1019;;;5.8;67.6
54439;BME280;40347;53.848;27.498;2023-02-13T12:21:42;1018.9;;;5.9;67.6
54439;BME280;40347;53.848;27.498;2023-02-13T12:26:18;1018.9;;;6.1;67.2
54439;BME280;40347;53.848;27.498;2023-02-13T12:31:33;1018.8;;;6.2;66.9
54439;BME280;40347;53.848;27.498;2023-02-13T12:36:18;1018.7;;;6.1;66.7
54439;BME280;40347;53.848;27.498;2023-02-13T12:41:16;1018.7;;;6;67.2
54439;BME280;40347;53.848;27.498;2023-02-13T12:46:08;1018.6;;;5.7;68
54439;BME280;40347;53.848;27.498;2023-02-13T12:51:19;1018.5;;;5.7;68.1
54439;BME280;40347;53.848;27.498;2023-02-13T12:56:20;1018.5;;;5.7;68.4
54439;BME280;40347;53.848;27.498;2023-02-13T13:01:15;1018.4;;;5.8;68
54439;BME280;40347;53.848;27.498;2023-02-13T13:06:25;1018.4;;;5.8;67.8
54439;BME280;40347;53.848;27.498;2023-02-13T13:11:23;1018.4;;;5.9;67.9
54439;BME280;40347;53.848;27.498;2023-02-13T13:16:19;1018.4;;;5.9;67.9
54439;BME280;40347;53.848;27.498;2023-02-13T13:21:16;1018.5;;;6.1;67.5
54439;BME280;40347;53.848;27.498;2023-02-13T13:26:11;1018.4;;;6.1;67.2
54439;BME280;40347;53.848;27.498;2023-02-13T13:31:07;1018.4;;;5.7;67.7
54439;BME280;40347;53.848;27.498;2023-02-13T13:36:41;1018.4;;;5.5;68.2
54439;BME280;40347;53.848;27.498;2023-02-13T13:41:18;1018.5;;;5.4;68.8
54439;BME280;40347;53.848;27.498;2023-02-13T13:46:18;1018.5;;;5.2;69.5
54439;BME280;40347;53.848;27.498;2023-02-13T13:51:19;1018.4;;;5.1;69.8
54439;BME280;40347;53.848;27.498;2023-02-13T13:56:08;1018.3;;;5;70
54439;BME280;40347;53.848;27.498;2023-02-13T14:01:21;1018.5;;;4.9;70.1
54439;BME280;40347;53.848;27.498;2023-02-13T14:06:07;1018.6;;;5;70.1
54439;BME280;40347;53.848;27.498;2023-02-13T14:11:32;1018.6;;;5.1;70.1
54439;BME280;40347;53.848;27.498;2023-02-13T14:16:37;1018.5;;;5.1;70.2
54439;BME280;40347;53.848;27.498;2023-02-13T14:21:07;1018.5;;;5.2;70.2
54439;BME280;40347;53.848;27.498;2023-02-13T14:26:08;1018.6;;;5.2;70
54439;BME280;40347;53.848;27.498;2023-02-13T14:31:18;1018.5;;;5.1;70.4
54439;BME280;40347;53.848;27.498;2023-02-13T14:36:27;1018.5;;;5;70.7
54439;BME280;40347;53.848;27.498;2023-02-13T14:42:20;1018.6;;;5;70.6
54439;BME280;40347;53.848;27.498;2023-02-13T14:46:21;1018.5;;;5.1;70.2
54439;BME280;40347;53.848;27.498;2023-02-13T14:51:19;1018.4;;;5;70
54439;BME280;40347;53.848;27.498;2023-02-13T14:56:29;1018.4;;;4.7;71.1
54439;BME280;40347;53.848;27.498;2023-02-13T15:01:13;1018.4;;;4.6;71.9
54439;BME280;40347;53.848;27.498;2023-02-13T15:06:27;1018.5;;;4.8;71.3
54439;BME280;40347;53.848;27.498;2023-02-13T15:11:35;1018.5;;;5;71.1
54439;BME280;40347;53.848;27.498;2023-02-13T15:16:54;1018.5;;;5;70.7
54439;BME280;40347;53.848;27.498;2023-02-13T15:21:29;1018.5;;;5;70.8
54439;BME280;40347;53.848;27.498;2023-02-13T15:26:20;1018.4;;;4.8;71.4
54439;BME280;40347;53.848;27.498;2023-02-13T15:31:18;1018.1;;;4.7;71.5
54439;BME280;40347;53.848;27.498;2023-02-13T15:36:18;1018.1;;;4.7;71.7
54439;BME280;40347;53.848;27.498;2023-02-13T15:41:17;1018.1;;;4.6;71.6
54439;BME280;40347;53.848;27.498;2023-02-13T15:46:18;1018.3;;;4.6;72.2
54439;BME280;40347;53.848;27.498;2023-02-13T15:51:07;1018.4;;;4.6;72.2
54439;BME280;40347;53.848;27.498;2023-02-13T15:56:27;1018.4;;;4.7;72
54439;BME280;40347;53.848;27.498;2023-02-13T16:01:19;1018.4;;;4.7;71.9
54439;BME280;40347;53.848;27.498;2023-02-13T16:06:08;1018.2;;;4.6;72.3
54439;BME280;40347;53.848;27.498;2023-02-13T16:11:29;1018.3;;;4.6;72.3
54439;BME280;40347;53.848;27.498;2023-02-13T16:16:08;1018.4;;;4.6;72.5
54439;BME280;40347;53.848;27.498;2023-02-13T16:21:27;1018.4;;;4.7;72.1
54439;BME280;40347;53.848;27.498;2023-02-13T16:26:10;1018.4;;;4.9;71.9
54439;BME280;40347;53.848;27.498;2023-02-13T16:31:17;1018.3;;;5;71.3
54439;BME280;40347;53.848;27.498;2023-02-13T16:36:16;1018.2;;;4.9;71
54439;BME280;40347;53.848;27.498;2023-02-13T16:41:32;1018.3;;;5;71.1
54439;BME280;40347;53.848;27.498;2023-02-13T16:46:30;1018.3;;;5.1;71
54439;BME280;40347;53.848;27.498;2023-02-13T16:51:07;1018.3;;;5.2;70.8
54439;BME280;40347;53.848;27.498;2023-02-13T16:56:27;1018.2;;;5.3;70.5
54439;BME280;40347;53.848;27.498;2023-02-13T17:01:12;1018.1;;;5.4;70.2
54439;BME280;40347;53.848;27.498;2023-02-13T17:06:07;1018.1;;;5.2;70.3
54439;BME280;40347;53.848;27.498;2023-02-13T17:11:41;1018;;;5.2;70.4
54439;BME280;40347;53.848;27.498;2023-02-13T17:16:07;1017.9;;;5.1;70.8
54439;BME280;40347;53.848;27.498;2023-02-13T17:21:29;1018;;;5.2;70.6
54439;BME280;40347;53.848;27.498;2023-02-13T17:26:07;1018;;;5.2;70.6
54439;BME280;40347;53.848;27.498;2023-02-13T17:31:29;1018;;;5.2;70.6
54439;BME280;40347;53.848;27.498;2023-02-13T17:36:17;1017.9;;;5.1;70.9
54439;BME280;40347;53.848;27.498;2023-02-13T17:41:21;1017.9;;;5.1;71.1
54439;BME280;40347;53.848;27.498;2023-02-13T17:46:25;1017.8;;;5;71.2
54439;BME280;40347;53.848;27.498;2023-02-13T17:51:17;1017.7;;;5;71.2
54439;BME280;40347;53.848;27.498;2023-02-13T17:56:17;1017.7;;;5.1;71
54439;BME280;40347;53.848;27.498;2023-02-13T18:01:08;1017.6;;;5.2;70.8
54439;BME280;40347;53.848;27.498;2023-02-13T18:06:17;1017.6;;;5.3;70.5
54439;BME280;40347;53.848;27.498;2023-02-13T18:11:15;1017.5;;;5.5;70.2
54439;BME280;40347;53.848;27.498;2023-02-13T18:16:19;1017.5;;;5.4;70
54439;BME280;40347;53.848;27.498;2023-02-13T18:21:07;1017.6;;;5.4;69.9
54439;BME280;40347;53.848;27.498;2023-02-13T18:26:29;1017.5;;;5.1;70.1
54439;BME280;40347;53.848;27.498;2023-02-13T18:31:07;1017.4;;;5.2;70.5
54439;BME280;40347;53.848;27.498;2023-02-13T18:36:07;1017.4;;;4.9;71.3
54439;BME280;40347;53.848;27.498;2023-02-13T18:41:07;1017.5;;;4.7;72.1
54439;BME280;40347;53.848;27.498;2023-02-13T18:46:08;1017.5;;;4.6;72.7
54439;BME280;40347;53.848;27.498;2023-02-13T18:51:17;1017.5;;;4.6;72.9
54439;BME280;40347;53.848;27.498;2023-02-13T18:56:27;1017.5;;;4.7;72.4
54439;BME280;40347;53.848;27.498;2023-02-13T19:01:39;1017.3;;;5;71.9
54439;BME280;40347;53.848;27.498;2023-02-13T19:06:25;1017.3;;;5;71.4
54439;BME280;40347;53.848;27.498;2023-02-13T19:11:27;1017.2;;;5.2;71.1
54439;BME280;40347;53.848;27.498;2023-02-13T19:16:39;1017.3;;;5.3;70.8
54439;BME280;40347;53.848;27.498;2023-02-13T19:21:19;1017.4;;;5.2;70.5
54439;BME280;40347;53.848;27.498;2023-02-13T19:26:08;1017.4;;;5.2;70.4
54439;BME280;40347;53.848;27.498;2023-02-13T19:31:08;1017.4;;;5.2;70.6
54439;BME280;40347;53.848;27.498;2023-02-13T19:36:08;1017.4;;;5.1;70.8
54439;BME280;40347;53.848;27.498;2023-02-13T19:41:41;1017.2;;;5;70.8
54439;BME280;40347;53.848;27.498;2023-02-13T19:46:20;1017.1;;;4.7;71.5
54439;BME280;40347;53.848;27.498;2023-02-13T19:51:18;1017;;;4.5;72.1
54439;BME280;40347;53.848;27.498;2023-02-13T19:56:08;1016.9;;;4.5;72.4
54439;BME280;40347;53.848;27.498;2023-02-13T20:01:26;1016.9;;;4.7;72.1
54439;BME280;40347;53.848;27.498;2023-02-13T20:06:21;1017.1;;;4.8;71.9
54439;BME280;40347;53.848;27.498;2023-02-13T20:11:18;1017;;;4.7;71.7
54439;BME280;40347;53.848;27.498;2023-02-13T20:16:08;1017;;;4.8;71.8
54439;BME280;40347;53.848;27.498;2023-02-13T20:21:07;1017;;;4.7;71.9
54439;BME280;40347;53.848;27.498;2023-02-13T20:26:31;1016.9;;;4.6;72.4
54439;BME280;40347;53.848;27.498;2023-02-13T20:31:07;1017;;;4.6;72.6
54439;BME280;40347;53.848;27.498;2023-02-13T20:36:20;1017;;;4.8;72.2
54439;BME280;40347;53.848;27.498;2023-02-13T20:41:20;1017;;;4.9;71.6
54439;BME280;40347;53.848;27.498;2023-02-13T20:46:19;1017.1;;;4.9;71.4
54439;BME280;40347;53.848;27.498;2023-02-13T20:51:08;1017.1;;;4.9;71.5
54439;BME280;40347;53.848;27.498;2023-02-13T20:56:25;1017.2;;;5;71.6
54439;BME280;40347;53.848;27.498;2023-02-13T21:01:19;1017;;;5.1;71.2
54439;BME280;40347;53.848;27.498;2023-02-13T21:06:07;1016.9;;;5;71
54439;BME280;40347;53.848;27.498;2023-02-13T21:11:30;1016.9;;;5;71.1
54439;BME280;40347;53.848;27.498;2023-02-13T21:16:08;1017;;;5.1;71
54439;BME280;40347;53.848;27.498;2023-02-13T21:21:07;1016.9;;;5.2;70.8
54439;BME280;40347;53.848;27.498;2023-02-13T21:26:28;1016.9;;;5.2;70.6
54439;BME280;40347;53.848;27.498;2023-02-13T21:31:28;1016.8;;;4.9;70.9
54439;BME280;40347;53.848;27.498;2023-02-13T21:36:08;1016.8;;;4.7;71.8
54439;BME280;40347;53.848;27.498;2023-02-13T21:41:27;1016.9;;;4.5;72.3
54439;BME280;40347;53.848;27.498;2023-02-13T21:46:28;1016.9;;;4.5;72.4
54439;BME280;40347;53.848;27.498;2023-02-13T21:51:28;1016.8;;;4.6;72.3
54439;BME280;40347;53.848;27.498;2023-02-13T21:56:16;1016.8;;;4.7;72.1
54439;BME280;40347;53.848;27.498;2023-02-13T22:01:30;1016.8;;;4.8;71.3
54439;BME280;40347;53.848;27.498;2023-02-13T22:06:18;1016.8;;;4.7;71.4
54439;BME280;40347;53.848;27.498;2023-02-13T22:11:29;1016.7;;;4.8;71.4
54439;BME280;40347;53.848;27.498;2023-02-13T22:16:41;1016.7;;;4.8;71.3
54439;BME280;40347;53.848;27.498;2023-02-13T22:21:07;1016.5;;;4.8;71.4
54439;BME280;40347;53.848;27.498;2023-02-13T22:26:30;1016.5;;;4.9;70.9
54439;BME280;40347;53.848;27.498;2023-02-13T22:31:07;1016.6;;;4.8;70.9
54439;BME280;40347;53.848;27.498;2023-02-13T22:36:27;1016.6;;;4.7;71.2
54439;BME280;40347;53.848;27.498;2023-02-13T22:41:29;1016.4;;;4.8;71.5
54439;BME280;40347;53.848;27.498;2023-02-13T22:46:18;1016.3;;;4.9;70.9
54439;BME280;40347;53.848;27.498;2023-02-13T22:51:18;1016.3;;;4.8;70.9
54439;BME280;40347;53.848;27.498;2023-02-13T22:56:07;1016.3;;;4.8;71
54439;BME280;40347;53.848;27.498;2023-02-13T23:01:16;1016.3;;;4.8;70.9
54439;BME280;40347;53.848;27.498;2023-02-13T23:06:29;1016.4;;;4.8;70.9
54439;BME280;40347;53.848;27.498;2023-02-13T23:11:09;1016.5;;;4.5;71.7
54439;BME280;40347;53.848;27.498;2023-02-13T23:16:10;1016.6;;;4.6;71.9
54439;BME280;40347;53.848;27.498;2023-02-13T23:21:19;1016.6;;;4.7;71.5
54439;BME280;40347;53.848;27.498;2023-02-13T23:26:19;1016.5;;;4.5;71.5
54439;BME280;40347;53.848;27.498;2023-02-13T23:31:07;1016.5;;;4.5;71.7
54439;BME280;40347;53.848;27.498;2023-02-13T23:36:07;1016.5;;;4.6;71.6
54439;BME280;40347;53.848;27.498;2023-02-13T23:41:17;1016.5;;;4.5;71.5
54439;BME280;40347;53.848;27.498;2023-02-13T23:46:07;1016.6;;;4.5;71.6
54439;BME280;40347;53.848;27.498;2023-02-13T23:51:27;1016.7;;;4.4;71.8
54439;BME280;40347;53.848;27.498;2023-02-13T23:56:07;1016.9;;;4.6;71.4
